createdAt,value
2023-04-21T00:00:56.021Z,30.90
2023-04-21T00:03:24.282Z,32.83
2023-04-21T00:05:52.123Z,26.77
2023-04-21T00:08:19.980Z,36.03
2023-04-21T00:10:47.185Z,35.10
2023-04-21T00:13:14.597Z,36.13
2023-04-21T00:15:41.796Z,39.47
2023-04-21T00:18:09.853Z,38.23
2023-04-21T00:20:37.052Z,40.00
2023-04-21T00:23:04.096Z,33.50
2023-04-21T00:25:31.024Z,36.47
2023-04-21T00:27:57.965Z,43.80
2023-04-21T00:30:24.887Z,40.60
2023-04-21T00:32:52.104Z,38.23
2023-04-21T00:35:19.361Z,36.73
2023-04-21T00:37:46.271Z,38.93
2023-04-21T00:40:14.006Z,38.37
2023-04-21T00:42:40.832Z,38.73
2023-04-21T00:45:08.800Z,37.77
2023-04-21T00:47:35.819Z,41.10
2023-04-21T00:50:04.107Z,43.13
2023-04-21T00:52:32.051Z,40.33
2023-04-21T00:55:00.731Z,41.07
2023-04-21T00:57:29.391Z,41.87
2023-04-21T00:59:56.180Z,43.07
2023-04-21T01:02:23.614Z,43.80
2023-04-21T01:04:50.631Z,38.53
2023-04-21T01:07:17.639Z,39.10
2023-04-21T01:09:44.451Z,42.30
2023-04-21T01:12:12.039Z,39.10
2023-04-21T01:14:41.015Z,44.07
2023-04-21T01:17:09.110Z,46.03
2023-04-21T01:19:42.562Z,41.90
2023-04-21T01:22:11.780Z,43.30
2023-04-21T01:24:40.820Z,40.40
2023-04-21T01:27:12.210Z,45.13
2023-04-21T01:29:40.752Z,39.07
2023-04-21T01:32:10.712Z,46.93
2023-04-21T01:34:40.017Z,40.87
2023-04-21T01:37:15.176Z,44.43
2023-04-21T01:39:45.042Z,46.00
2023-04-21T01:42:12.442Z,43.40
2023-04-21T01:44:40.051Z,40.97
2023-04-21T01:47:08.986Z,45.93
2023-04-21T01:49:35.917Z,39.97
2023-04-21T01:52:03.006Z,43.03
2023-04-21T01:54:30.204Z,43.03
2023-04-21T01:56:58.291Z,44.03
2023-04-21T01:59:25.460Z,39.50
2023-04-21T02:01:52.379Z,42.00
2023-04-21T02:04:19.345Z,43.07
2023-04-21T02:06:46.550Z,47.60
2023-04-21T02:09:13.440Z,46.10
2023-04-21T02:11:40.480Z,48.50
2023-04-21T02:14:07.313Z,49.37
2023-04-21T02:16:34.384Z,49.07
2023-04-21T02:19:01.324Z,49.20
2023-04-21T02:21:28.388Z,53.57
2023-04-21T02:23:55.762Z,47.00
2023-04-21T02:26:22.598Z,50.00
2023-04-21T02:28:50.360Z,51.03
2023-04-21T02:31:18.759Z,54.10
2023-04-21T02:33:46.068Z,51.17
2023-04-21T02:36:13.296Z,60.97
2023-04-21T02:38:40.340Z,50.50
2023-04-21T02:41:07.118Z,54.33
2023-04-21T02:43:34.506Z,45.60
2023-04-21T02:46:07.484Z,54.93
2023-04-21T02:48:36.033Z,50.57
2023-04-21T02:51:05.007Z,48.53
2023-04-21T02:53:32.036Z,57.83
2023-04-21T02:55:59.291Z,48.63
2023-04-21T02:58:26.209Z,59.23
2023-04-21T03:00:53.295Z,50.90
2023-04-21T03:03:20.273Z,51.50
2023-04-21T03:05:55.830Z,56.27
2023-04-21T03:08:22.675Z,52.70
2023-04-21T03:10:49.474Z,49.27
2023-04-21T03:13:17.544Z,56.47
2023-04-21T03:15:45.040Z,54.47
2023-04-21T03:18:12.709Z,55.77
2023-04-21T03:20:40.227Z,54.07
2023-04-21T03:23:07.263Z,57.80
2023-04-21T03:25:34.642Z,57.90
2023-04-21T03:28:04.749Z,77.37
2023-04-21T03:30:31.694Z,86.30
2023-04-21T03:32:59.160Z,69.17
2023-04-21T03:35:26.150Z,58.00
2023-04-21T03:37:53.554Z,68.00
2023-04-21T03:40:20.475Z,57.17
2023-04-21T03:42:47.321Z,59.80
2023-04-21T03:45:14.294Z,57.40
2023-04-21T03:47:41.527Z,53.23
2023-04-21T03:50:08.684Z,57.23
2023-04-21T03:52:35.577Z,47.90
2023-04-21T03:55:02.590Z,53.70
2023-04-21T03:57:29.803Z,50.00
2023-04-21T03:59:57.024Z,58.87
2023-04-21T04:02:24.033Z,59.43
2023-04-21T04:04:51.050Z,61.03
2023-04-21T04:07:17.981Z,56.97
2023-04-21T04:09:44.973Z,61.30
2023-04-21T04:12:11.991Z,52.67
2023-04-21T04:14:39.724Z,58.77
2023-04-21T04:17:06.572Z,58.77
2023-04-21T04:19:34.088Z,59.10
2023-04-21T04:22:01.360Z,59.10
2023-04-21T04:24:28.637Z,56.10
2023-04-21T04:26:55.525Z,61.27
2023-04-21T04:29:22.822Z,51.53
2023-04-21T04:31:50.976Z,55.23
2023-04-21T04:34:18.732Z,57.50
2023-04-21T04:36:46.449Z,58.80
2023-04-21T04:39:13.908Z,58.23
2023-04-21T04:41:41.719Z,52.33
2023-04-21T04:44:08.922Z,55.70
2023-04-21T04:46:35.875Z,57.60
2023-04-21T04:49:03.526Z,55.53
2023-04-21T04:51:30.333Z,59.57
2023-04-21T04:53:57.447Z,58.67
2023-04-21T04:56:24.285Z,60.27
2023-04-21T04:58:51.090Z,59.70
2023-04-21T05:01:18.541Z,56.77
2023-04-21T05:03:46.663Z,54.80
2023-04-21T05:06:14.410Z,50.43
2023-04-21T05:08:41.676Z,50.50
2023-04-21T05:11:09.599Z,56.43
2023-04-21T05:13:39.636Z,55.47
2023-04-21T05:16:08.591Z,56.20
2023-04-21T05:18:35.752Z,63.73
2023-04-21T05:21:02.637Z,56.00
2023-04-21T05:23:29.494Z,52.47
2023-04-21T05:25:56.305Z,54.80
2023-04-21T05:28:23.520Z,62.83
2023-04-21T05:30:50.361Z,65.63
2023-04-21T05:33:20.355Z,69.03
2023-04-21T05:35:47.234Z,60.10
2023-04-21T05:38:14.196Z,61.17
2023-04-21T05:40:41.679Z,55.70
2023-04-21T05:43:08.842Z,54.40
2023-04-21T05:45:41.147Z,61.97
2023-04-21T05:48:08.167Z,56.80
2023-04-21T05:50:35.821Z,57.23
2023-04-21T05:53:02.694Z,60.23
2023-04-21T05:55:29.537Z,57.60
2023-04-21T05:57:56.522Z,54.30
2023-04-21T06:00:23.376Z,57.33
2023-04-21T06:02:50.328Z,55.20
2023-04-21T06:05:17.499Z,57.07
2023-04-21T06:07:44.780Z,52.50
2023-04-21T06:10:13.500Z,57.03
2023-04-21T06:12:40.461Z,58.80
2023-04-21T06:15:07.751Z,54.17
2023-04-21T06:17:34.671Z,57.63
2023-04-21T06:20:01.866Z,53.87
2023-04-21T06:22:28.915Z,66.23
2023-04-21T06:24:55.796Z,56.50
2023-04-21T06:27:22.624Z,60.67
2023-04-21T06:29:54.744Z,54.77
2023-04-21T06:32:21.676Z,62.13
2023-04-21T06:34:48.469Z,57.23
2023-04-21T06:37:16.101Z,62.83
2023-04-21T06:39:42.950Z,56.40
2023-04-21T06:42:10.265Z,54.97
2023-04-21T06:44:38.183Z,59.83
2023-04-21T06:47:05.187Z,68.03
2023-04-21T06:49:34.053Z,63.00
2023-04-21T06:52:01.089Z,60.70
2023-04-21T06:54:27.966Z,66.50
2023-04-21T06:56:54.802Z,60.73
2023-04-21T06:59:22.128Z,66.13
2023-04-21T07:01:52.335Z,60.63
2023-04-21T07:04:19.991Z,60.70
2023-04-21T07:06:47.502Z,58.17
2023-04-21T07:09:14.416Z,62.40
2023-04-21T07:11:41.379Z,64.27
2023-04-21T07:14:11.253Z,57.97
2023-04-21T07:16:38.262Z,57.33
2023-04-21T07:19:05.270Z,58.07
2023-04-21T07:21:36.093Z,49.83
2023-04-21T07:24:03.837Z,55.00
2023-04-21T07:26:30.875Z,55.90
2023-04-21T07:28:58.600Z,46.33
2023-04-21T07:31:25.675Z,49.43
2023-04-21T07:33:52.762Z,56.33
2023-04-21T07:36:19.752Z,55.97
2023-04-21T07:38:46.777Z,56.77
2023-04-21T07:41:14.281Z,48.83
2023-04-21T07:43:41.195Z,49.53
2023-04-21T07:46:10.868Z,50.17
2023-04-21T07:48:37.752Z,54.87
2023-04-21T07:51:04.621Z,50.63
2023-04-21T07:53:31.597Z,46.23
2023-04-21T07:55:59.031Z,47.53
2023-04-21T07:58:26.343Z,50.97
2023-04-21T08:00:53.183Z,52.00
2023-04-21T08:03:22.244Z,49.87
2023-04-21T08:05:51.549Z,47.93
2023-04-21T08:08:20.512Z,51.93
2023-04-21T08:10:47.525Z,43.27
2023-04-21T08:13:14.941Z,51.30
2023-04-21T08:15:41.946Z,50.00
2023-04-21T08:18:09.685Z,48.33
2023-04-21T08:20:36.641Z,46.20
2023-04-21T08:23:03.830Z,46.40
2023-04-21T08:25:31.032Z,43.00
2023-04-21T08:27:57.937Z,47.77
2023-04-21T08:30:27.308Z,43.30
2023-04-21T08:32:54.371Z,42.13
2023-04-21T08:35:21.310Z,47.87
2023-04-21T08:37:49.083Z,44.23
2023-04-21T08:40:17.759Z,39.30
2023-04-21T08:42:45.913Z,41.80
2023-04-21T08:45:12.839Z,39.87
2023-04-21T08:47:41.959Z,46.83
2023-04-21T08:50:14.149Z,39.73
2023-04-21T08:52:41.101Z,43.70
2023-04-21T08:55:09.847Z,50.70
2023-04-21T08:57:36.697Z,47.00
2023-04-21T09:00:06.491Z,45.50
2023-04-21T09:02:59.648Z,47.70
2023-04-21T09:05:30.261Z,43.30
2023-04-21T09:08:09.683Z,45.50
2023-04-21T09:10:53.958Z,42.40
2023-04-21T09:13:30.128Z,47.60
2023-04-21T09:15:57.493Z,43.67
2023-04-21T09:18:27.327Z,43.40
2023-04-21T09:21:16.039Z,45.00
2023-04-21T09:23:43.662Z,43.50
2023-04-21T09:26:11.832Z,48.23
2023-04-21T09:28:42.492Z,44.33
2023-04-21T09:31:29.073Z,39.40
2023-04-21T09:34:01.106Z,41.93
2023-04-21T09:36:31.005Z,42.90
2023-04-21T09:39:30.132Z,43.47
2023-04-21T09:41:49.884Z,38.90
2023-04-21T09:44:18.111Z,42.47
2023-04-21T09:46:50.318Z,40.90
2023-04-21T09:49:18.023Z,43.37
2023-04-21T09:54:29.261Z,39.47
2023-04-21T09:56:59.845Z,47.87
2023-04-21T09:59:38.064Z,39.63
2023-04-21T10:02:07.168Z,39.30
2023-04-21T10:04:37.388Z,40.90
2023-04-21T10:07:05.298Z,39.97
2023-04-21T10:09:39.075Z,42.50
2023-04-21T10:12:09.182Z,40.60
2023-04-21T10:14:36.915Z,37.17
2023-04-21T10:17:10.085Z,43.73
2023-04-21T10:19:41.702Z,40.37
2023-04-21T10:22:10.211Z,40.60
2023-04-21T10:24:41.549Z,39.50
2023-04-21T10:27:13.162Z,42.07
2023-04-21T10:29:55.380Z,38.07
2023-04-21T10:32:40.260Z,39.30
2023-04-21T10:35:11.819Z,35.57
2023-04-21T10:37:40.793Z,45.57
2023-04-21T10:40:41.989Z,36.57
2023-04-21T10:43:46.490Z,42.10
2023-04-21T10:46:35.047Z,38.10
2023-04-21T10:49:31.833Z,39.20
2023-04-21T10:51:59.287Z,38.60
2023-04-21T10:54:26.149Z,42.47
2023-04-21T10:56:57.485Z,39.73
2023-04-21T10:59:25.574Z,43.53
2023-04-21T11:01:52.705Z,40.50
2023-04-21T11:04:22.453Z,39.00
2023-04-21T11:07:11.289Z,42.13
2023-04-21T11:09:39.938Z,35.83
2023-04-21T11:12:15.026Z,35.77
2023-04-21T11:14:44.559Z,42.17
2023-04-21T11:17:18.195Z,39.60
2023-04-21T11:19:56.840Z,32.70
2023-04-21T11:22:25.287Z,42.10
2023-04-21T11:24:55.740Z,43.53
2023-04-21T11:27:23.431Z,38.50
2023-04-21T11:29:51.081Z,43.67
2023-04-21T11:32:18.587Z,47.23
2023-04-21T11:34:45.855Z,42.93
2023-04-21T11:37:24.538Z,37.13
2023-04-21T11:40:00.097Z,39.47
2023-04-21T11:42:27.940Z,37.50
2023-04-21T11:44:57.165Z,35.87
2023-04-21T11:47:28.460Z,40.13
2023-04-21T11:50:02.260Z,41.13
2023-04-21T11:52:33.097Z,45.13
2023-04-21T11:55:20.384Z,44.70
2023-04-21T11:57:47.443Z,47.40
2023-04-21T12:00:15.511Z,39.93
2023-04-21T12:02:43.816Z,41.20
2023-04-21T12:05:13.366Z,33.17
2023-04-21T12:07:45.610Z,46.33
2023-04-21T12:10:13.874Z,37.70
2023-04-21T12:12:42.181Z,36.67
2023-04-21T12:15:11.390Z,35.13
2023-04-21T12:17:49.130Z,32.87
2023-04-21T12:20:17.543Z,38.50
2023-04-21T12:22:44.930Z,32.87
2023-04-21T12:25:12.032Z,37.50
2023-04-21T12:27:48.616Z,33.23
2023-04-21T12:30:16.199Z,31.33
2023-04-21T12:32:43.372Z,29.30
2023-04-21T12:35:10.422Z,30.27
2023-04-21T12:37:38.267Z,30.87
2023-04-21T12:40:06.034Z,29.63
2023-04-21T12:42:35.976Z,32.40
2023-04-21T12:45:05.395Z,34.97
2023-04-21T12:47:32.856Z,30.57
2023-04-21T12:50:00.240Z,27.93
2023-04-21T12:52:27.159Z,33.50
2023-04-21T12:54:54.231Z,28.23
2023-04-21T12:57:21.539Z,33.33
2023-04-21T12:59:48.761Z,32.47
2023-04-21T13:02:15.851Z,34.37
2023-04-21T13:04:42.894Z,27.47
2023-04-21T13:07:09.976Z,31.47
2023-04-21T13:09:37.194Z,28.30
2023-04-21T13:12:04.114Z,28.57
2023-04-21T13:14:31.356Z,31.70
2023-04-21T13:16:58.370Z,34.50
2023-04-21T13:19:25.759Z,30.17
2023-04-21T13:21:54.203Z,32.33
2023-04-21T13:24:21.845Z,30.27
2023-04-21T13:26:49.040Z,32.00
2023-04-21T13:29:16.526Z,28.90
2023-04-21T13:31:43.493Z,27.80
2023-04-21T13:34:10.946Z,28.70
2023-04-21T13:36:37.896Z,30.70
2023-04-21T13:39:05.890Z,33.73
2023-04-21T13:41:32.856Z,30.53
2023-04-21T13:43:59.729Z,34.07
2023-04-21T13:46:26.877Z,31.60
2023-04-21T13:48:54.471Z,30.10
2023-04-21T13:51:21.807Z,32.90
2023-04-21T13:53:49.338Z,29.90
2023-04-21T13:56:17.068Z,32.93
2023-04-21T13:58:44.585Z,34.20
2023-04-21T14:01:14.229Z,34.67
2023-04-21T14:03:41.524Z,33.00
2023-04-21T14:06:09.033Z,34.10
2023-04-21T14:08:36.145Z,32.47
2023-04-21T14:11:03.873Z,31.17
2023-04-21T14:16:01.089Z,34.40
2023-04-21T14:18:28.332Z,28.53
2023-04-21T14:20:55.196Z,28.67
2023-04-21T14:23:22.146Z,28.77
2023-04-21T14:25:49.049Z,33.53
2023-04-21T14:28:15.936Z,29.20
2023-04-21T14:30:43.641Z,33.37
2023-04-21T14:33:10.768Z,36.63
2023-04-21T14:35:38.034Z,31.83
2023-04-21T14:38:05.020Z,32.17
2023-04-21T14:40:31.970Z,30.30
2023-04-21T14:42:59.140Z,29.33
2023-04-21T14:45:26.256Z,31.10
2023-04-21T14:47:53.654Z,30.50
2023-04-21T14:50:21.006Z,28.03
2023-04-21T14:52:49.720Z,31.17
2023-04-21T14:55:17.362Z,35.90
2023-04-21T14:57:44.331Z,30.60
2023-04-21T15:00:12.903Z,25.43
2023-04-21T15:02:39.905Z,24.37
2023-04-21T15:05:08.922Z,22.30
2023-04-21T15:07:36.227Z,27.93
2023-04-21T15:10:03.650Z,23.60
2023-04-21T15:12:30.637Z,27.37
2023-04-21T15:14:57.734Z,22.20
2023-04-21T15:17:24.669Z,20.37
2023-04-21T15:19:51.593Z,23.87
2023-04-21T15:22:19.010Z,24.77
2023-04-21T15:24:46.413Z,25.07
2023-04-21T15:27:13.179Z,21.30
2023-04-21T15:29:40.393Z,20.90
2023-04-21T15:32:07.477Z,21.07
2023-04-21T15:34:34.300Z,19.30
2023-04-21T15:37:01.666Z,19.80
2023-04-21T15:39:28.510Z,20.40
2023-04-21T15:41:56.130Z,24.33
2023-04-21T15:44:22.923Z,21.70
2023-04-21T15:46:50.642Z,23.40
2023-04-21T15:49:17.565Z,30.43
2023-04-21T15:51:44.543Z,19.33
2023-04-21T15:54:11.494Z,23.80
2023-04-21T15:56:38.565Z,23.20
2023-04-21T15:59:05.530Z,23.63
2023-04-21T16:01:32.615Z,19.50
2023-04-21T16:03:59.701Z,25.17
2023-04-21T16:06:29.393Z,21.90
2023-04-21T16:08:56.774Z,23.93
2023-04-21T16:11:25.107Z,23.33
2023-04-21T16:13:52.454Z,27.60
2023-04-21T16:16:19.688Z,22.10
2023-04-21T16:18:46.636Z,17.80
2023-04-21T16:21:13.617Z,23.53
2023-04-21T16:23:41.063Z,18.13
2023-04-21T16:26:09.121Z,18.77
2023-04-21T16:28:36.231Z,26.70
2023-04-21T16:31:03.702Z,18.97
2023-04-21T16:33:30.821Z,20.80
2023-04-21T16:35:57.822Z,20.53
2023-04-21T16:38:24.815Z,22.00
2023-04-21T16:40:52.689Z,18.10
2023-04-21T16:43:19.490Z,21.27
2023-04-21T16:45:46.178Z,18.37
2023-04-21T16:48:13.063Z,19.83
2023-04-21T16:50:41.715Z,20.13
2023-04-21T16:53:08.825Z,17.77
2023-04-21T16:55:35.569Z,24.20
2023-04-21T16:58:02.424Z,21.00
2023-04-21T17:00:30.282Z,22.33
2023-04-21T17:02:57.563Z,21.07
2023-04-21T17:05:24.679Z,20.70
2023-04-21T17:07:51.467Z,18.30
2023-04-21T17:10:18.535Z,20.57
2023-04-21T17:12:46.093Z,23.87
2023-04-21T17:15:13.229Z,26.47
2023-04-21T17:17:42.884Z,18.03
2023-04-21T17:20:12.531Z,16.33
2023-04-21T17:22:40.089Z,21.37
2023-04-21T17:25:08.010Z,18.73
2023-04-21T17:27:36.454Z,16.07
2023-04-21T17:30:04.853Z,14.93
2023-04-21T17:32:33.627Z,15.60
2023-04-21T17:35:01.095Z,15.03
2023-04-21T17:37:29.124Z,15.23
2023-04-21T17:39:56.064Z,19.50
2023-04-21T17:42:22.779Z,13.83
2023-04-21T17:44:49.561Z,26.50
2023-04-21T17:47:16.612Z,14.83
2023-04-21T17:49:43.499Z,16.10
2023-04-21T17:52:10.104Z,14.10
2023-04-21T17:54:37.604Z,13.93
2023-04-21T17:57:04.532Z,10.33
2023-04-21T17:59:31.174Z,10.00
2023-04-21T18:01:58.958Z,14.87
2023-04-21T18:04:27.761Z,8.53
2023-04-21T18:06:54.509Z,9.57
2023-04-21T18:09:21.307Z,8.27
2023-04-21T18:11:48.033Z,8.13
2023-04-21T18:14:15.141Z,6.20
2023-04-21T18:16:41.828Z,6.50
2023-04-21T18:19:08.662Z,10.60
2023-04-21T18:21:35.403Z,5.07
2023-04-21T18:24:02.676Z,5.87
2023-04-21T18:26:29.631Z,7.27
2023-04-21T18:28:59.402Z,5.77
2023-04-21T18:31:28.497Z,4.20
2023-04-21T18:33:58.900Z,5.90
2023-04-21T18:36:25.609Z,4.80
2023-04-21T18:38:52.522Z,8.07
2023-04-21T18:41:19.609Z,6.60
2023-04-21T18:43:46.257Z,69.33
2023-04-21T18:46:13.186Z,124.03
2023-04-21T18:48:40.394Z,61.23
2023-04-21T18:51:07.022Z,19.77
2023-04-21T18:53:33.922Z,12.60
2023-04-21T18:56:00.601Z,27.07
2023-04-21T18:58:27.313Z,9.60
2023-04-21T19:00:55.081Z,19.00
2023-04-21T19:03:22.706Z,8.80
2023-04-21T19:05:49.525Z,8.20
2023-04-21T19:08:18.284Z,12.50
2023-04-21T19:10:50.589Z,13.57
2023-04-21T19:13:18.566Z,13.50
2023-04-21T19:15:45.890Z,17.47
2023-04-21T19:18:12.735Z,13.80
2023-04-21T19:20:39.522Z,9.20
2023-04-21T19:23:06.314Z,15.53
2023-04-21T19:25:35.655Z,17.90
2023-04-21T19:28:02.608Z,13.93
2023-04-21T19:30:29.880Z,10.33
2023-04-21T19:32:56.958Z,7.57
2023-04-21T19:35:24.067Z,7.60
2023-04-21T19:37:50.908Z,7.23
2023-04-21T19:40:17.629Z,5.80
2023-04-21T19:42:44.288Z,7.67
2023-04-21T19:45:11.168Z,14.13
2023-04-21T19:47:38.084Z,13.67
2023-04-21T19:50:05.301Z,10.40
2023-04-21T19:52:32.270Z,11.13
2023-04-21T19:54:59.128Z,8.40
2023-04-21T19:57:25.945Z,10.73
2023-04-21T19:59:52.653Z,7.10
2023-04-21T20:02:19.564Z,8.50
2023-04-21T20:04:47.369Z,10.03
2023-04-21T20:07:14.161Z,16.33
2023-04-21T20:09:41.337Z,6.33
2023-04-21T20:12:09.045Z,4.73
2023-04-21T20:14:35.781Z,5.73
2023-04-21T20:17:02.572Z,4.57
2023-04-21T20:19:31.946Z,4.90
2023-04-21T20:21:58.745Z,8.13
2023-04-21T20:24:25.429Z,4.60
2023-04-21T20:26:52.201Z,4.70
2023-04-21T20:29:19.636Z,7.30
2023-04-21T20:31:46.510Z,5.37
2023-04-21T20:34:13.269Z,4.73
2023-04-21T20:36:40.879Z,6.30
2023-04-21T20:39:07.608Z,4.83
2023-04-21T20:41:34.789Z,7.27
2023-04-21T20:44:01.877Z,7.03
2023-04-21T20:46:32.045Z,7.57
2023-04-21T20:48:59.027Z,4.93
2023-04-21T20:51:26.840Z,7.60
2023-04-21T20:53:53.562Z,3.90
2023-04-21T20:56:20.293Z,4.13
2023-04-21T20:58:47.885Z,6.93
2023-04-21T21:01:14.650Z,6.87
2023-04-21T21:03:41.712Z,4.73
2023-04-21T21:06:08.846Z,8.43
2023-04-21T21:08:35.601Z,4.47
2023-04-21T21:11:02.277Z,4.17
2023-04-21T21:13:28.883Z,3.43
2023-04-21T21:15:55.548Z,4.17
2023-04-21T21:18:22.345Z,6.50
2023-04-21T21:20:49.082Z,7.23
2023-04-21T21:23:15.838Z,5.80
2023-04-21T21:25:42.729Z,10.83
2023-04-21T21:28:09.379Z,7.50
2023-04-21T21:30:36.232Z,5.03
2023-04-21T21:33:02.975Z,9.10
2023-04-21T21:35:29.726Z,13.30
2023-04-21T21:37:56.547Z,5.20
2023-04-21T21:40:23.249Z,7.30
2023-04-21T21:42:49.866Z,7.37
2023-04-21T21:45:17.006Z,5.60
2023-04-21T21:47:45.606Z,6.77
2023-04-21T21:50:13.113Z,6.60
2023-04-21T21:52:39.849Z,6.80
2023-04-21T21:55:07.250Z,5.40
2023-04-21T21:57:34.286Z,11.30
2023-04-21T22:00:01.816Z,5.83
2023-04-21T22:02:29.154Z,6.47
2023-04-21T22:04:56.602Z,7.33
2023-04-21T22:07:24.941Z,6.60
2023-04-21T22:09:52.605Z,8.20
2023-04-21T22:12:19.476Z,6.87
2023-04-21T22:14:47.024Z,7.43
2023-04-21T22:17:14.410Z,6.33
2023-04-21T22:19:41.870Z,6.77
2023-04-21T22:22:08.610Z,9.70
2023-04-21T22:24:35.895Z,7.67
2023-04-21T22:27:02.658Z,10.53
2023-04-21T22:29:29.423Z,8.00
2023-04-21T22:31:56.218Z,9.77
2023-04-21T22:34:23.720Z,8.93
2023-04-21T22:36:52.126Z,10.00
2023-04-21T22:39:19.356Z,8.17
2023-04-21T22:41:46.178Z,7.30
2023-04-21T22:44:14.409Z,9.60
2023-04-21T22:46:41.781Z,10.53
2023-04-21T22:49:09.162Z,9.33
2023-04-21T22:51:36.286Z,8.83
2023-04-21T22:54:03.713Z,9.90
2023-04-21T22:56:31.312Z,8.50
2023-04-21T22:58:58.463Z,8.90
2023-04-21T23:01:25.380Z,8.83
2023-04-21T23:03:52.539Z,8.27
2023-04-21T23:06:19.312Z,13.80
2023-04-21T23:08:45.974Z,10.77
2023-04-21T23:11:13.007Z,15.40
2023-04-21T23:13:40.077Z,14.60
2023-04-21T23:16:06.994Z,12.70
2023-04-21T23:18:33.737Z,18.93
2023-04-21T23:21:00.938Z,22.13
2023-04-21T23:23:27.714Z,15.80
2023-04-21T23:25:54.478Z,15.03
2023-04-21T23:28:21.672Z,11.77
2023-04-21T23:30:48.420Z,16.07
2023-04-21T23:33:15.449Z,13.57
2023-04-21T23:35:42.671Z,13.67
2023-04-21T23:38:09.329Z,14.47
2023-04-21T23:40:36.077Z,15.30
2023-04-21T23:43:03.215Z,14.40
2023-04-21T23:45:29.915Z,14.17
2023-04-21T23:47:56.560Z,14.63
2023-04-21T23:50:23.573Z,18.47
2023-04-21T23:52:50.444Z,12.83
2023-04-21T23:55:17.299Z,18.43
2023-04-21T23:57:47.078Z,14.30
